Denver, CO (80202)

4:26 PM MDT on August 21, 2014 (GMT -0600)
Geography and Env. Sciences, CU Denver | Change Station
CLOSE
Current Station
Personal Weather Station
Location: Denver, CO
Elevation: 5225 ft
Nearby Weather Stations

Elev 5225 ft 39.75 °N, 105.00 °W | Updated 1 minute ago

Mostly Cloudy
Mostly Cloudy
83.5 °F
Feels Like 81 °F
N
2.0
Wind Variable Wind from SE
Gusts 13.0 mph

Today
High -- | Low -- °F
--% Chance of Precip.
Yesterday
High -- | Low -- °F
Precip. -- in
6:17 AM 7:47 PM
Waning Crescent, 12% visible
Pressure 29.91 in
Visibility 10.0 miles
Clouds Few 10000 ft
Scattered Clouds 12000 ft
Scattered Clouds 14000 ft
Mostly Cloudy 20000 ft
Heat Index 81 °F
Dew Point 45 °F
Humidity 26%
Rainfall 0.00 in
Snow Depth Not available.
UV 0.0 out of 12
Pollen 9.70 out of 12
Ozone Good
PM2.5 Good
Flu Activity Not available.
METAR KAPA 212153Z 02004KT 10SM FEW100 SCT120 SCT140 BKN200 27/03 A3011 RMK AO2 SLP126 VIRGA DSNT W T02720033

More Conditions Fewer Conditions

Pressure 29.91 in
Visibility 10.0 miles
Clouds Few 10000 ft
Scattered Clouds 12000 ft
Scattered Clouds 14000 ft
Mostly Cloudy 20000 ft
Heat Index 81 °F
Dew Point 45 °F
Humidity 26%
Rainfall 0.00 in
Snow Depth Not available.
UV 0.0 out of 12
Pollen 9.70 out of 12
Ozone Good
PM2.5 Good
Flu Activity Not available.
METAR KAPA 212153Z 02004KT 10SM FEW100 SCT120 SCT140 BKN200 27/03 A3011 RMK AO2 SLP126 VIRGA DSNT W T02720033

More Conditions Fewer Conditions

10-Day Weather Forecast

Almanac

Astronomy

Aug. 21, 2014 Rise Set
Actual Time 6:17 AM MDT 7:47 PM MDT
Civil Twilight 5:49 AM MDT 8:16 PM MDT
Nautical Twilight 5:15 AM MDT 8:50 PM MDT
Astronomical Twilight 4:38 AM MDT 9:26 PM MDT
Moon 2:50 AM MDT 5:18 PM MDT
Length of Visible Light 14h 26m
Length of Day
13h 29m
Tomorrow will be 2m 22s shorter.
Waning Crescent, 12% of the Moon is Illuminated
Today
Waning Crescent
Aug 25
New
Sep 2
First Quarter
Sep 8
Full
Sep 15
Last Quarter

Today's Extremes

State Highs State Lows

Community

WunderPhotos

Upload Photos

1,746,038 photos uploaded!

WunderBlogs® & News

Nearby

Air Quality

  Air Quality AQ Index Pollutant
Yesterday Good
OZONE
Yesterday Good
PM10
Current Good
OZONE
Current Good
PM2.5
Thursday Moderate
OZONE
Thursday Good
PM2.5
Friday Good
OZONE
Friday Good
PM2.5

Snow Depth

Station Depth Elevation
Berthoud Summit 0 in 11300 ft
Wild Basin 0 in 9560 ft
Summit Ranch 0 in 9400 ft
Lake Irene 0 in 10700 ft
Willow Creek Pass 0 in 9540 ft

Earthquake Activity

City Distance Mag. Time & Date
No recent earthquake activity has been reported nearby.
Minimum magnitude displayed is 2.5.

Coastal Water Temperatures

Place Temperature
No Stations Reporting

Nearby Weather Stations